Time;durP1;ratioP1;P1;durP2;ratioP2;P2;SDS_P1;SDS_P2;PMS_P1;PMS_P2;Temp;Humidity;BMP_temperature;BMP_pressure;BME280_temperature;BME280_humidity;BME280_pressure;Samples;Min_cycle;Max_cycle;Signal;HPM_P1;HPM_P2
2023/12/28 00:01:03;;;;;;;2.00;1.00;;;;;;;;;;5113799;28;20377;-65
2023/12/28 00:03:29;;;;;;;3.88;1.45;;;;;;;;;;5114243;28;20836;-64
2023/12/28 00:05:54;;;;;;;2.65;1.10;;;;;;;;;;5113442;28;20023;-63
2023/12/28 00:08:19;;;;;;;2.58;1.40;;;;;;;;;;5113098;28;20035;-63
2023/12/28 00:10:45;;;;;;;4.20;1.60;;;;;;;;;;5092548;28;20069;-63
2023/12/28 00:13:10;;;;;;;3.70;1.20;;;;;;;;;;5113380;28;20277;-64
2023/12/28 00:15:35;;;;;;;3.15;1.25;;;;;;;;;;5112911;28;20165;-64
2023/12/28 00:18:00;;;;;;;3.27;1.50;;;;;;;;;;5112970;28;20099;-64
2023/12/28 00:20:26;;;;;;;3.20;1.40;;;;;;;;;;5113102;28;20293;-63
2023/12/28 00:22:51;;;;;;;3.13;1.43;;;;;;;;;;5112081;28;20334;-65
2023/12/28 00:25:16;;;;;;;3.03;1.40;;;;;;;;;;5113453;28;20308;-64
2023/12/28 00:27:41;;;;;;;2.90;1.27;;;;;;;;;;5112446;28;20300;-64
2023/12/28 00:30:07;;;;;;;2.50;1.20;;;;;;;;;;5112621;28;20277;-64
2023/12/28 00:32:32;;;;;;;2.70;1.15;;;;;;;;;;5113138;28;20269;-64
2023/12/28 00:34:57;;;;;;;4.22;1.65;;;;;;;;;;5113231;28;20027;-64
2023/12/28 00:37:22;;;;;;;3.25;1.55;;;;;;;;;;5113492;28;20039;-64
2023/12/28 00:39:49;;;;;;;3.08;1.70;;;;;;;;;;5112953;28;20043;-64
2023/12/28 00:42:15;;;;;;;2.47;1.15;;;;;;;;;;5108920;28;20023;-63
2023/12/28 00:44:41;;;;;;;3.42;1.70;;;;;;;;;;5086375;28;20496;-63
2023/12/28 00:47:06;;;;;;;4.25;1.67;;;;;;;;;;5112878;28;20024;-63
2023/12/28 00:49:31;;;;;;;3.28;1.60;;;;;;;;;;5105251;28;20024;-63
2023/12/28 00:51:57;;;;;;;4.50;1.43;;;;;;;;;;5112528;28;20125;-63
2023/12/28 00:54:22;;;;;;;3.60;1.80;;;;;;;;;;5107074;28;20305;-63
2023/12/28 00:56:47;;;;;;;3.93;1.53;;;;;;;;;;5113114;28;20302;-63
2023/12/28 00:59:12;;;;;;;6.03;1.50;;;;;;;;;;5110770;28;20312;-64
2023/12/28 01:01:37;;;;;;;2.83;1.40;;;;;;;;;;5112851;28;20300;-63
2023/12/28 01:04:03;;;;;;;4.93;1.40;;;;;;;;;;5111743;28;20430;-65
2023/12/28 01:06:28;;;;;;;3.72;1.70;;;;;;;;;;5113116;28;20289;-64
2023/12/28 01:08:56;;;;;;;4.03;1.63;;;;;;;;;;5112626;28;20028;-64
2023/12/28 01:11:21;;;;;;;3.88;1.70;;;;;;;;;;5104704;28;20107;-64
2023/12/28 01:13:47;;;;;;;2.57;1.37;;;;;;;;;;5112117;28;20099;-65
2023/12/28 01:16:12;;;;;;;4.70;1.95;;;;;;;;;;5112279;28;20269;-65
2023/12/28 01:18:37;;;;;;;4.50;1.98;;;;;;;;;;5112694;28;20023;-64
2023/12/28 01:21:03;;;;;;;3.70;1.83;;;;;;;;;;5111344;28;20040;-64
2023/12/28 01:23:28;;;;;;;3.97;2.10;;;;;;;;;;5112186;28;20289;-64
2023/12/28 01:25:55;;;;;;;4.30;2.00;;;;;;;;;;5111765;28;20373;-64
2023/12/28 01:28:20;;;;;;;3.30;1.70;;;;;;;;;;5112675;28;20410;-65
2023/12/28 01:30:45;;;;;;;6.15;1.90;;;;;;;;;;5111415;28;20102;-65
2023/12/28 01:33:10;;;;;;;4.83;1.90;;;;;;;;;;5109111;28;20044;-65
2023/12/28 01:35:36;;;;;;;3.75;1.50;;;;;;;;;;5106559;28;20281;-65
2023/12/28 01:38:01;;;;;;;3.10;1.30;;;;;;;;;;5106023;28;20530;-65
2023/12/28 01:40:27;;;;;;;4.82;1.80;;;;;;;;;;5111953;28;20026;-65
2023/12/28 01:42:52;;;;;;;4.55;1.73;;;;;;;;;;5112219;28;20031;-65
2023/12/28 01:45:17;;;;;;;3.80;2.00;;;;;;;;;;5109877;28;20024;-64
2023/12/28 01:47:42;;;;;;;3.00;1.65;;;;;;;;;;5112526;28;20272;-63
2023/12/28 01:50:08;;;;;;;4.87;1.77;;;;;;;;;;5112165;28;20023;-63
2023/12/28 01:52:33;;;;;;;4.57;2.03;;;;;;;;;;5111341;28;20265;-63
2023/12/28 01:54:59;;;;;;;3.95;1.77;;;;;;;;;;5111339;28;20027;-63
2023/12/28 01:57:24;;;;;;;3.28;1.65;;;;;;;;;;5111986;28;20024;-64
2023/12/28 01:59:50;;;;;;;2.55;1.58;;;;;;;;;;5111787;28;20489;-63
2023/12/28 02:02:16;;;;;;;4.32;2.03;;;;;;;;;;5091761;28;20093;-63
2023/12/28 02:04:41;;;;;;;3.50;1.92;;;;;;;;;;5111320;28;20027;-63
2023/12/28 02:07:06;;;;;;;3.85;1.75;;;;;;;;;;5111995;28;20031;-63
2023/12/28 02:09:31;;;;;;;5.38;2.15;;;;;;;;;;5111210;28;20039;-63
2023/12/28 02:11:57;;;;;;;6.13;2.20;;;;;;;;;;5111999;28;20036;-63
2023/12/28 02:14:22;;;;;;;3.05;1.63;;;;;;;;;;5098986;28;20274;-63
2023/12/28 02:16:53;;;;;;;5.93;2.13;;;;;;;;;;5111584;28;20019;-63
2023/12/28 02:19:25;;;;;;;4.28;1.85;;;;;;;;;;5110683;28;20028;-63
2023/12/28 02:21:50;;;;;;;2.83;1.63;;;;;;;;;;5101944;28;20399;-63
2023/12/28 02:24:15;;;;;;;3.17;1.83;;;;;;;;;;5111501;28;20115;-63
2023/12/28 02:26:41;;;;;;;2.67;1.40;;;;;;;;;;5112131;28;20369;-63
2023/12/28 02:29:06;;;;;;;3.30;1.80;;;;;;;;;;5111916;28;20296;-63
2023/12/28 02:31:35;;;;;;;3.45;1.55;;;;;;;;;;5111086;28;20465;-63
2023/12/28 02:34:05;;;;;;;4.88;1.92;;;;;;;;;;5111992;28;20470;-63
2023/12/28 02:36:30;;;;;;;5.00;1.67;;;;;;;;;;5111072;28;20019;-63
2023/12/28 02:38:58;;;;;;;4.22;2.20;;;;;;;;;;5107637;28;20024;-63
2023/12/28 02:41:24;;;;;;;4.10;1.77;;;;;;;;;;5109157;28;20094;-64
2023/12/28 02:43:49;;;;;;;3.30;1.80;;;;;;;;;;5111593;28;20474;-63
2023/12/28 02:46:14;;;;;;;3.30;1.70;;;;;;;;;;5111160;28;20034;-63
2023/12/28 02:48:40;;;;;;;4.60;2.03;;;;;;;;;;5113419;28;20399;-63
2023/12/28 02:51:05;;;;;;;4.77;2.13;;;;;;;;;;5113462;28;20716;-63
2023/12/28 02:53:30;;;;;;;4.82;2.05;;;;;;;;;;5113603;28;20285;-64
2023/12/28 02:55:55;;;;;;;3.03;1.50;;;;;;;;;;5114021;28;20024;-64
2023/12/28 02:58:20;;;;;;;6.83;2.00;;;;;;;;;;5115093;28;20269;-64
2023/12/28 03:00:46;;;;;;;3.20;1.57;;;;;;;;;;5114925;28;20316;-64
2023/12/28 03:03:11;;;;;;;3.67;1.70;;;;;;;;;;5114130;28;20360;-64
2023/12/28 03:05:36;;;;;;;3.83;2.20;;;;;;;;;;5114824;28;20356;-63
2023/12/28 03:08:02;;;;;;;3.55;1.80;;;;;;;;;;5114253;28;20340;-64
2023/12/28 03:10:27;;;;;;;4.63;1.80;;;;;;;;;;5114100;28;20107;-64
2023/12/28 03:12:52;;;;;;;3.20;1.70;;;;;;;;;;5113229;28;20407;-64
2023/12/28 03:15:17;;;;;;;7.77;1.83;;;;;;;;;;5114392;28;20023;-64
2023/12/28 03:17:43;;;;;;;3.50;1.70;;;;;;;;;;5113994;28;20357;-64
2023/12/28 03:20:09;;;;;;;3.10;1.57;;;;;;;;;;5113243;28;20027;-65
2023/12/28 03:22:34;;;;;;;4.10;1.65;;;;;;;;;;5114218;28;20352;-65
2023/12/28 03:25:00;;;;;;;3.88;1.33;;;;;;;;;;5114619;28;20103;-65
2023/12/28 03:27:25;;;;;;;3.03;1.30;;;;;;;;;;5113102;28;20114;-64
2023/12/28 03:29:50;;;;;;;4.27;1.77;;;;;;;;;;5114310;28;20028;-64
2023/12/28 03:32:15;;;;;;;4.80;1.53;;;;;;;;;;5114240;28;20280;-65
2023/12/28 03:34:41;;;;;;;3.17;1.65;;;;;;;;;;5114284;28;20288;-64
2023/12/28 03:37:06;;;;;;;3.28;1.48;;;;;;;;;;5113255;28;20025;-64
2023/12/28 03:39:31;;;;;;;2.92;1.58;;;;;;;;;;5113552;28;20026;-64
2023/12/28 03:41:56;;;;;;;5.03;1.45;;;;;;;;;;5113540;28;20027;-64
2023/12/28 03:44:22;;;;;;;4.28;1.80;;;;;;;;;;5113127;28;20051;-64
2023/12/28 03:46:48;;;;;;;3.20;1.55;;;;;;;;;;5109835;28;20473;-65
2023/12/28 03:49:15;;;;;;;4.18;1.65;;;;;;;;;;5112842;28;20023;-64
2023/12/28 03:51:40;;;;;;;3.10;1.40;;;;;;;;;;5111655;28;20027;-64
2023/12/28 03:54:06;;;;;;;3.63;1.33;;;;;;;;;;5110981;28;20027;-64
2023/12/28 03:56:32;;;;;;;3.08;1.50;;;;;;;;;;5113832;28;20261;-64
2023/12/28 03:58:58;;;;;;;2.85;1.35;;;;;;;;;;5113883;28;20027;-65
2023/12/28 04:01:23;;;;;;;3.27;1.27;;;;;;;;;;5108458;28;20020;-65
2023/12/28 04:03:48;;;;;;;6.82;2.20;;;;;;;;;;5113754;28;20294;-65
2023/12/28 04:06:14;;;;;;;2.90;1.30;;;;;;;;;;5115601;28;20023;-65
2023/12/28 04:08:40;;;;;;;4.95;1.77;;;;;;;;;;5099254;28;20276;-65
2023/12/28 04:11:05;;;;;;;5.35;1.50;;;;;;;;;;5106944;28;20024;-65
2023/12/28 04:13:30;;;;;;;3.35;1.40;;;;;;;;;;5098722;28;20836;-65
2023/12/28 04:15:55;;;;;;;4.20;1.57;;;;;;;;;;5099689;28;20032;-65
2023/12/28 04:18:21;;;;;;;2.83;1.15;;;;;;;;;;5113257;28;20387;-65
2023/12/28 04:20:46;;;;;;;2.65;1.13;;;;;;;;;;5112939;28;20019;-65
2023/12/28 04:23:12;;;;;;;2.95;1.38;;;;;;;;;;5111713;28;20031;-65
2023/12/28 04:25:37;;;;;;;2.90;1.25;;;;;;;;;;5112912;28;20026;-66
2023/12/28 04:28:02;;;;;;;2.87;0.93;;;;;;;;;;5112936;28;20062;-65
2023/12/28 04:30:28;;;;;;;3.53;1.52;;;;;;;;;;5113281;28;20356;-66
2023/12/28 04:32:53;;;;;;;5.18;1.40;;;;;;;;;;5113222;28;20110;-65
2023/12/28 04:35:18;;;;;;;3.27;1.60;;;;;;;;;;5113907;28;20016;-65
2023/12/28 04:37:43;;;;;;;2.80;1.07;;;;;;;;;;5112901;28;20277;-65
2023/12/28 04:40:09;;;;;;;2.90;0.93;;;;;;;;;;5110684;28;20266;-65
2023/12/28 04:42:34;;;;;;;2.03;1.00;;;;;;;;;;5113344;28;20289;-64
2023/12/28 04:44:59;;;;;;;4.83;1.33;;;;;;;;;;5112638;28;20023;-64
2023/12/28 04:47:24;;;;;;;3.43;1.27;;;;;;;;;;5112757;28;20313;-66
2023/12/28 04:49:49;;;;;;;3.55;1.38;;;;;;;;;;5112840;28;20275;-66
2023/12/28 04:52:15;;;;;;;3.47;1.40;;;;;;;;;;5112760;28;20110;-66
2023/12/28 04:54:40;;;;;;;4.35;1.25;;;;;;;;;;5112117;28;20304;-65
2023/12/28 04:57:05;;;;;;;4.57;1.67;;;;;;;;;;5112422;28;20035;-65
2023/12/28 04:59:31;;;;;;;3.43;1.10;;;;;;;;;;5113134;28;20469;-66
2023/12/28 05:01:56;;;;;;;6.87;1.57;;;;;;;;;;5110050;28;20819;-66
2023/12/28 05:04:21;;;;;;;3.55;1.58;;;;;;;;;;5107486;28;20354;-65
2023/12/28 05:06:46;;;;;;;2.80;1.00;;;;;;;;;;5105493;28;20019;-64
2023/12/28 05:09:11;;;;;;;3.80;1.40;;;;;;;;;;5110251;28;20356;-64
2023/12/28 05:11:37;;;;;;;3.23;1.30;;;;;;;;;;5111846;28;20046;-63
2023/12/28 05:14:02;;;;;;;2.80;1.57;;;;;;;;;;5099857;28;20269;-65
2023/12/28 05:16:27;;;;;;;6.17;1.40;;;;;;;;;;5094349;28;20282;-65
2023/12/28 05:18:52;;;;;;;8.70;1.77;;;;;;;;;;5112039;28;20274;-65
2023/12/28 05:21:18;;;;;;;3.65;1.30;;;;;;;;;;5112527;28;20097;-65
2023/12/28 05:23:43;;;;;;;3.25;1.05;;;;;;;;;;5111588;28;20031;-66
2023/12/28 05:26:08;;;;;;;4.63;1.53;;;;;;;;;;5112515;28;20023;-65
2023/12/28 05:28:34;;;;;;;5.78;1.77;;;;;;;;;;5112432;28;20280;-65
2023/12/28 05:30:59;;;;;;;2.00;1.02;;;;;;;;;;5111890;28;20058;-65
2023/12/28 05:33:25;;;;;;;6.57;1.50;;;;;;;;;;5111539;28;20023;-65
2023/12/28 05:35:50;;;;;;;3.83;1.70;;;;;;;;;;5111312;28;20262;-65
2023/12/28 05:38:15;;;;;;;3.80;1.23;;;;;;;;;;5111716;28;20085;-66
2023/12/28 05:40:40;;;;;;;5.07;1.40;;;;;;;;;;5110757;28;20310;-66
2023/12/28 05:43:06;;;;;;;5.60;1.50;;;;;;;;;;5111735;28;20759;-65
2023/12/28 05:45:31;;;;;;;5.22;1.80;;;;;;;;;;5112009;28;20028;-65
2023/12/28 05:47:56;;;;;;;4.13;1.33;;;;;;;;;;5111942;28;20023;-64
2023/12/28 05:50:22;;;;;;;4.57;1.40;;;;;;;;;;5112536;28;20461;-64
2023/12/28 05:52:47;;;;;;;4.32;1.63;;;;;;;;;;5111899;28;20308;-64
2023/12/28 05:55:12;;;;;;;5.07;1.35;;;;;;;;;;5111500;28;20019;-64
2023/12/28 05:57:38;;;;;;;6.40;1.55;;;;;;;;;;5111309;28;20051;-64
2023/12/28 06:00:04;;;;;;;4.82;1.10;;;;;;;;;;5110698;28;20049;-64
2023/12/28 06:02:29;;;;;;;5.97;1.67;;;;;;;;;;5111974;28;20027;-64
2023/12/28 06:04:54;;;;;;;4.13;1.40;;;;;;;;;;5109978;28;20031;-64
2023/12/28 06:07:20;;;;;;;4.37;1.60;;;;;;;;;;5111455;28;20027;-64
2023/12/28 06:09:46;;;;;;;3.50;1.03;;;;;;;;;;5111939;28;20253;-65
2023/12/28 06:12:11;;;;;;;3.88;1.52;;;;;;;;;;5109773;28;20277;-64
2023/12/28 06:14:36;;;;;;;3.17;1.03;;;;;;;;;;5111819;28;20023;-64
2023/12/28 06:17:02;;;;;;;4.60;1.70;;;;;;;;;;5111251;28;20751;-64
2023/12/28 06:19:27;;;;;;;7.28;1.20;;;;;;;;;;5113045;27;20782;-64
2023/12/28 06:21:54;;;;;;;5.90;1.50;;;;;;;;;;5114767;28;20039;-64
2023/12/28 06:24:19;;;;;;;4.00;1.25;;;;;;;;;;5114843;28;20711;-64
2023/12/28 06:26:44;;;;;;;4.80;1.25;;;;;;;;;;5115252;28;20077;-64
2023/12/28 06:29:10;;;;;;;5.53;1.13;;;;;;;;;;5115381;28;20111;-64
2023/12/28 06:31:38;;;;;;;5.63;1.92;;;;;;;;;;5114722;28;20023;-64
2023/12/28 06:34:03;;;;;;;5.95;1.55;;;;;;;;;;5114918;28;20024;-64
2023/12/28 06:36:29;;;;;;;7.78;1.77;;;;;;;;;;5115616;28;20020;-64
2023/12/28 06:38:54;;;;;;;4.15;1.42;;;;;;;;;;5113876;28;20081;-64
2023/12/28 06:41:19;;;;;;;7.70;1.43;;;;;;;;;;5114554;28;20081;-64
2023/12/28 06:43:44;;;;;;;4.97;1.20;;;;;;;;;;5113766;28;20289;-64
2023/12/28 06:46:09;;;;;;;5.70;1.50;;;;;;;;;;5115161;28;20314;-64
2023/12/28 06:48:35;;;;;;;7.13;2.07;;;;;;;;;;5114133;28;20265;-64
2023/12/28 06:51:00;;;;;;;5.22;1.58;;;;;;;;;;5113968;28;20265;-64
2023/12/28 06:53:25;;;;;;;6.03;1.60;;;;;;;;;;5114281;28;20024;-64
2023/12/28 06:55:50;;;;;;;4.05;1.00;;;;;;;;;;5112018;28;20280;-64
2023/12/28 06:58:16;;;;;;;5.43;1.27;;;;;;;;;;5114612;28;20143;-64
2023/12/28 07:00:43;;;;;;;3.03;1.17;;;;;;;;;;5114517;28;20323;-64
2023/12/28 07:03:08;;;;;;;8.15;1.60;;;;;;;;;;5114674;28;20040;-64
2023/12/28 07:05:34;;;;;;;9.67;1.50;;;;;;;;;;5114784;28;20024;-64
2023/12/28 07:07:59;;;;;;;7.03;1.77;;;;;;;;;;5114761;28;20249;-64
2023/12/28 07:10:24;;;;;;;5.47;1.10;;;;;;;;;;5111936;28;20277;-64
2023/12/28 07:12:50;;;;;;;7.43;1.60;;;;;;;;;;5073899;28;20265;-64
2023/12/28 07:15:15;;;;;;;7.20;1.42;;;;;;;;;;5071412;28;20023;-64
2023/12/28 07:17:40;;;;;;;6.07;1.27;;;;;;;;;;5071381;28;20032;-64
2023/12/28 07:20:06;;;;;;;4.88;1.58;;;;;;;;;;5070659;28;20012;-64
2023/12/28 07:22:31;;;;;;;3.10;0.85;;;;;;;;;;5072289;28;20085;-64
2023/12/28 07:24:56;;;;;;;5.13;1.23;;;;;;;;;;5070203;28;20040;-65
2023/12/28 07:27:21;;;;;;;6.43;1.63;;;;;;;;;;5071356;28;20035;-64
2023/12/28 07:29:47;;;;;;;5.70;1.87;;;;;;;;;;5069820;28;20289;-64
2023/12/28 07:32:14;;;;;;;4.90;1.13;;;;;;;;;;5072006;28;20277;-64
2023/12/28 07:34:39;;;;;;;5.38;1.40;;;;;;;;;;5082942;28;20024;-65
2023/12/28 07:37:05;;;;;;;10.52;1.92;;;;;;;;;;5112733;28;20076;-65
2023/12/28 07:39:30;;;;;;;6.25;1.88;;;;;;;;;;5114010;28;20020;-65
2023/12/28 07:41:55;;;;;;;4.33;1.47;;;;;;;;;;5113955;28;20142;-65
2023/12/28 07:44:20;;;;;;;6.43;1.50;;;;;;;;;;5114476;28;20372;-65
2023/12/28 07:46:46;;;;;;;5.40;1.20;;;;;;;;;;5113792;28;20289;-65
2023/12/28 07:49:11;;;;;;;6.10;1.45;;;;;;;;;;5114026;28;20365;-65
2023/12/28 07:51:36;;;;;;;7.82;1.80;;;;;;;;;;5113395;28;20034;-64
2023/12/28 07:54:01;;;;;;;4.80;0.93;;;;;;;;;;5113356;28;20436;-64
2023/12/28 07:56:27;;;;;;;5.53;1.50;;;;;;;;;;5112413;28;20760;-64
2023/12/28 07:58:52;;;;;;;5.57;1.35;;;;;;;;;;5111210;28;20025;-64
2023/12/28 08:01:17;;;;;;;7.10;1.67;;;;;;;;;;5110008;28;20026;-64
2023/12/28 08:03:43;;;;;;;8.73;1.45;;;;;;;;;;5111546;28;20289;-64
2023/12/28 08:06:08;;;;;;;5.38;1.15;;;;;;;;;;5107374;28;20023;-64
2023/12/28 08:08:34;;;;;;;3.63;1.33;;;;;;;;;;5109860;28;20024;-66
2023/12/28 08:10:59;;;;;;;7.10;1.65;;;;;;;;;;5102682;28;20082;-64
2023/12/28 08:13:24;;;;;;;11.00;1.70;;;;;;;;;;5097878;28;20049;-65
2023/12/28 08:15:49;;;;;;;5.27;1.47;;;;;;;;;;5106293;28;20630;-64
2023/12/28 08:18:14;;;;;;;8.50;2.07;;;;;;;;;;5111425;28;20759;-64
2023/12/28 08:20:40;;;;;;;8.63;1.53;;;;;;;;;;5104969;28;20777;-64
2023/12/28 08:23:05;;;;;;;5.50;1.52;;;;;;;;;;5108684;28;20688;-65
2023/12/28 08:25:30;;;;;;;5.90;1.42;;;;;;;;;;5110797;28;20031;-64
2023/12/28 08:27:55;;;;;;;7.90;1.90;;;;;;;;;;5109912;28;20367;-64
2023/12/28 08:30:21;;;;;;;5.17;1.20;;;;;;;;;;5109735;28;20778;-64
2023/12/28 08:32:46;;;;;;;3.50;1.35;;;;;;;;;;5094010;28;20278;-64
2023/12/28 08:35:11;;;;;;;11.93;1.60;;;;;;;;;;5104215;28;20465;-64
2023/12/28 08:37:37;;;;;;;3.43;1.20;;;;;;;;;;5109970;28;20055;-65
2023/12/28 08:40:03;;;;;;;11.55;1.80;;;;;;;;;;5083095;28;20308;-64
2023/12/28 08:42:29;;;;;;;4.72;1.13;;;;;;;;;;5066449;28;20034;-64
2023/12/28 08:44:54;;;;;;;6.13;1.33;;;;;;;;;;5055543;28;20031;-65
2023/12/28 08:47:19;;;;;;;12.20;2.33;;;;;;;;;;5066787;28;20028;-64
2023/12/28 08:49:44;;;;;;;4.65;1.20;;;;;;;;;;5066334;28;20855;-74
2023/12/28 08:52:10;;;;;;;7.43;1.42;;;;;;;;;;5064824;28;20198;-64
2023/12/28 08:54:35;;;;;;;7.35;1.63;;;;;;;;;;5098387;28;20076;-64
2023/12/28 08:57:00;;;;;;;6.63;1.77;;;;;;;;;;5112518;28;20036;-63
2023/12/28 08:59:25;;;;;;;8.17;1.53;;;;;;;;;;5112421;28;20266;-64
2023/12/28 09:01:53;;;;;;;5.20;1.48;;;;;;;;;;5107084;28;20281;-63
2023/12/28 09:04:18;;;;;;;6.25;1.50;;;;;;;;;;5110601;28;20030;-71
2023/12/28 09:06:43;;;;;;;7.55;1.40;;;;;;;;;;5108693;28;20098;-71
2023/12/28 09:09:09;;;;;;;8.57;1.77;;;;;;;;;;5111191;28;20027;-73
2023/12/28 09:11:34;;;;;;;9.52;1.58;;;;;;;;;;5086851;28;21448;-74
2023/12/28 09:13:59;;;;;;;7.25;1.73;;;;;;;;;;5091702;28;20080;-70
2023/12/28 09:16:25;;;;;;;5.28;1.65;;;;;;;;;;5086671;28;20396;-66
2023/12/28 09:18:50;;;;;;;6.53;1.47;;;;;;;;;;5095062;28;20039;-65
2023/12/28 09:21:15;;;;;;;4.37;1.33;;;;;;;;;;5095952;28;20260;-66
2023/12/28 09:23:41;;;;;;;4.93;1.13;;;;;;;;;;5073070;28;20325;-65
2023/12/28 09:26:06;;;;;;;6.05;1.70;;;;;;;;;;5084179;28;20361;-66
2023/12/28 09:28:32;;;;;;;6.68;1.15;;;;;;;;;;5094634;28;20551;-69
2023/12/28 09:30:57;;;;;;;5.40;1.60;;;;;;;;;;5090018;28;20031;-67
2023/12/28 09:33:22;;;;;;;6.40;1.48;;;;;;;;;;5064920;28;20026;-64
2023/12/28 09:35:48;;;;;;;12.73;1.80;;;;;;;;;;5067220;28;20116;-63
2023/12/28 09:38:13;;;;;;;5.97;1.63;;;;;;;;;;5073928;28;20054;-64
2023/12/28 09:40:41;;;;;;;12.93;1.50;;;;;;;;;;5097149;28;20027;-62
2023/12/28 09:43:13;;;;;;;7.03;1.50;;;;;;;;;;5109275;28;20027;-62
2023/12/28 09:45:39;;;;;;;5.95;1.50;;;;;;;;;;5108354;28;20032;-65
2023/12/28 09:48:06;;;;;;;4.85;1.38;;;;;;;;;;5110858;28;20084;-68
2023/12/28 09:50:32;;;;;;;3.33;1.00;;;;;;;;;;5110570;28;20020;-76
2023/12/28 09:52:57;;;;;;;9.05;2.00;;;;;;;;;;5110884;28;20023;-73
2023/12/28 09:55:22;;;;;;;6.15;1.58;;;;;;;;;;5111486;28;20042;-76
2023/12/28 09:57:48;;;;;;;5.10;1.20;;;;;;;;;;5111978;28;20039;-82
2023/12/28 10:00:13;;;;;;;4.93;1.63;;;;;;;;;;5108501;28;20031;-80
2023/12/28 10:02:43;;;;;;;5.05;1.52;;;;;;;;;;5110371;28;20035;-79
2023/12/28 10:05:12;;;;;;;7.25;1.77;;;;;;;;;;5089150;28;20048;-79
2023/12/28 10:07:44;;;;;;;7.30;1.85;;;;;;;;;;5090945;28;20463;-79
2023/12/28 10:10:10;;;;;;;7.82;1.30;;;;;;;;;;5088669;28;20038;-81
2023/12/28 10:12:35;;;;;;;4.90;1.55;;;;;;;;;;5073084;28;20040;-79
2023/12/28 10:15:01;;;;;;;4.63;1.27;;;;;;;;;;5090771;28;20031;-79
2023/12/28 10:17:26;;;;;;;8.45;2.15;;;;;;;;;;5068189;28;20024;-79
2023/12/28 10:19:52;;;;;;;7.27;1.73;;;;;;;;;;5090699;28;20027;-79
2023/12/28 10:22:18;;;;;;;2.67;1.15;;;;;;;;;;5090042;28;20285;-78
2023/12/28 10:24:44;;;;;;;7.55;1.67;;;;;;;;;;5089835;28;20035;-78
2023/12/28 10:27:09;;;;;;;4.80;1.02;;;;;;;;;;5088968;28;20024;-77
2023/12/28 10:29:34;;;;;;;8.55;1.58;;;;;;;;;;5089172;28;20027;-80
2023/12/28 10:32:00;;;;;;;6.43;1.65;;;;;;;;;;5089447;28;20106;-80
2023/12/28 10:34:25;;;;;;;6.10;1.80;;;;;;;;;;5088887;28;20028;-79
2023/12/28 10:36:51;;;;;;;11.98;1.88;;;;;;;;;;5090859;28;20032;-79
2023/12/28 10:39:19;;;;;;;6.07;1.60;;;;;;;;;;5069464;28;20382;-80
2023/12/28 10:41:45;;;;;;;3.28;0.90;;;;;;;;;;5089580;28;20091;-79
2023/12/28 10:44:12;;;;;;;5.82;1.58;;;;;;;;;;5091010;28;20121;-79
2023/12/28 10:46:42;;;;;;;7.45;1.77;;;;;;;;;;5083384;28;20016;-80
2023/12/28 10:49:12;;;;;;;4.65;1.17;;;;;;;;;;5088514;28;20024;-79
2023/12/28 10:51:40;;;;;;;5.65;1.35;;;;;;;;;;5088925;28;20470;-79
2023/12/28 10:54:06;;;;;;;7.63;1.70;;;;;;;;;;5083101;28;20027;-79
2023/12/28 10:56:36;;;;;;;7.40;1.67;;;;;;;;;;5083352;28;20103;-81
2023/12/28 10:59:10;;;;;;;4.38;1.50;;;;;;;;;;5084683;28;20029;-79
2023/12/28 11:01:37;;;;;;;11.00;1.98;;;;;;;;;;5083961;28;20020;-81
2023/12/28 11:04:04;;;;;;;4.60;1.35;;;;;;;;;;5082829;28;20389;-79
2023/12/28 11:06:30;;;;;;;4.13;1.55;;;;;;;;;;5090685;28;20012;-78
2023/12/28 11:08:57;;;;;;;7.07;1.80;;;;;;;;;;5094332;28;20028;-80
2023/12/28 11:11:22;;;;;;;9.23;2.13;;;;;;;;;;5093648;28;20442;-79
2023/12/28 11:13:48;;;;;;;8.02;1.33;;;;;;;;;;5093929;28;20024;-80
2023/12/28 11:16:14;;;;;;;5.72;1.27;;;;;;;;;;5081011;28;20058;-79
2023/12/28 11:18:39;;;;;;;7.05;1.98;;;;;;;;;;5090737;28;20028;-78
2023/12/28 11:21:04;;;;;;;3.53;1.45;;;;;;;;;;5082504;28;20104;-78
2023/12/28 11:23:30;;;;;;;9.90;1.67;;;;;;;;;;5093648;28;20073;-81
2023/12/28 11:25:55;;;;;;;4.97;2.15;;;;;;;;;;5074144;28;20031;-71
2023/12/28 11:28:23;;;;;;;5.93;1.42;;;;;;;;;;5089840;28;20035;-73
2023/12/28 11:30:48;;;;;;;11.43;1.65;;;;;;;;;;5092666;28;20107;-73
2023/12/28 11:33:13;;;;;;;4.50;1.50;;;;;;;;;;5093990;28;20112;-72
2023/12/28 11:35:39;;;;;;;8.10;1.83;;;;;;;;;;5092883;28;20126;-73
2023/12/28 11:38:08;;;;;;;9.93;2.13;;;;;;;;;;5094473;28;20273;-73
2023/12/28 11:40:39;;;;;;;6.38;1.90;;;;;;;;;;5088557;28;20118;-73
2023/12/28 11:43:14;;;;;;;8.63;2.03;;;;;;;;;;5087572;28;20478;-72
2023/12/28 11:45:39;;;;;;;;;;;;;;;;;;5074641;28;20024;-74
2023/12/28 11:48:04;;;;;;;5.85;1.92;;;;;;;;;;5092841;28;19912;-73
2023/12/28 11:50:29;;;;;;;5.28;1.35;;;;;;;;;;5092589;28;20489;-73
2023/12/28 11:52:55;;;;;;;8.35;1.73;;;;;;;;;;5074689;28;20033;-72
2023/12/28 11:55:26;;;;;;;8.57;1.50;;;;;;;;;;5058658;28;20382;-73
2023/12/28 11:57:52;;;;;;;7.30;1.70;;;;;;;;;;5088597;28;20077;-73
2023/12/28 12:00:17;;;;;;;6.97;1.83;;;;;;;;;;5069150;28;20427;-73
2023/12/28 12:02:44;;;;;;;11.73;1.90;;;;;;;;;;5082662;28;20185;-73
2023/12/28 12:05:10;;;;;;;7.97;1.52;;;;;;;;;;5077110;28;20077;-74
2023/12/28 12:07:35;;;;;;;6.00;1.42;;;;;;;;;;5085739;28;20028;-73
2023/12/28 12:10:01;;;;;;;8.65;2.00;;;;;;;;;;5073320;28;20128;-74
2023/12/28 12:12:26;;;;;;;3.85;1.15;;;;;;;;;;5067551;28;20501;-74
2023/12/28 12:14:51;;;;;;;5.90;1.50;;;;;;;;;;5075465;28;20020;-73
2023/12/28 12:17:17;;;;;;;5.35;1.70;;;;;;;;;;5081769;28;20032;-74
2023/12/28 12:19:43;;;;;;;9.60;1.88;;;;;;;;;;5081871;28;20419;-73
2023/12/28 12:22:08;;;;;;;3.60;0.80;;;;;;;;;;5085993;28;20016;-74
2023/12/28 12:24:33;;;;;;;6.30;1.25;;;;;;;;;;5086289;28;20074;-74
2023/12/28 12:27:02;;;;;;;4.20;1.70;;;;;;;;;;5072274;28;20024;-74
2023/12/28 12:29:29;;;;;;;6.40;1.25;;;;;;;;;;5080631;28;20035;-73
2023/12/28 12:31:54;;;;;;;4.85;1.42;;;;;;;;;;5078103;28;20020;-74
2023/12/28 12:34:20;;;;;;;4.88;1.30;;;;;;;;;;5079421;28;20359;-74
2023/12/28 12:36:45;;;;;;;6.20;2.10;;;;;;;;;;5067650;28;20024;-74
2023/12/28 12:39:11;;;;;;;10.18;2.30;;;;;;;;;;5069773;28;20497;-75
2023/12/28 12:41:37;;;;;;;4.45;1.08;;;;;;;;;;5072988;28;20032;-74
2023/12/28 12:44:03;;;;;;;5.50;1.63;;;;;;;;;;5061032;28;20038;-74
2023/12/28 12:46:30;;;;;;;4.93;1.60;;;;;;;;;;5072684;28;20857;-74
2023/12/28 12:48:56;;;;;;;4.43;1.25;;;;;;;;;;5070438;28;20031;-74
2023/12/28 12:51:21;;;;;;;7.80;1.83;;;;;;;;;;5061504;28;20292;-74
2023/12/28 12:53:46;;;;;;;5.53;1.63;;;;;;;;;;5068707;28;20020;-73
2023/12/28 12:56:12;;;;;;;6.13;1.73;;;;;;;;;;5066574;28;20659;-72
2023/12/28 12:58:37;;;;;;;5.75;1.38;;;;;;;;;;5060715;28;21072;-73
2023/12/28 13:01:03;;;;;;;4.55;1.63;;;;;;;;;;5069078;28;20028;-73
2023/12/28 13:03:29;;;;;;;5.20;1.70;;;;;;;;;;5068168;28;20031;-72
2023/12/28 13:05:56;;;;;;;9.00;1.50;;;;;;;;;;5066363;28;20027;-74
2023/12/28 13:08:21;;;;;;;6.43;1.73;;;;;;;;;;5069569;28;20028;-72
2023/12/28 13:10:46;;;;;;;6.60;1.07;;;;;;;;;;5068648;28;20086;-73
2023/12/28 13:13:12;;;;;;;6.90;1.77;;;;;;;;;;5063809;28;20283;-75
2023/12/28 13:15:37;;;;;;;4.40;1.40;;;;;;;;;;5067753;28;20331;-74
2023/12/28 13:18:02;;;;;;;5.03;1.93;;;;;;;;;;5073718;28;20485;-74
2023/12/28 13:20:27;;;;;;;4.82;1.40;;;;;;;;;;5070432;28;20712;-74
2023/12/28 13:22:53;;;;;;;4.67;1.60;;;;;;;;;;5073613;28;20895;-78
2023/12/28 13:25:18;;;;;;;7.20;1.60;;;;;;;;;;5074766;28;20683;-73
2023/12/28 13:27:43;;;;;;;7.55;1.90;;;;;;;;;;5069850;28;20625;-76
2023/12/28 13:30:09;;;;;;;6.80;1.95;;;;;;;;;;5076679;28;20027;-71
2023/12/28 13:32:34;;;;;;;5.53;1.50;;;;;;;;;;5078109;28;20031;-75
2023/12/28 13:34:59;;;;;;;4.85;1.27;;;;;;;;;;5051677;28;20016;-67
2023/12/28 13:37:25;;;;;;;7.25;1.60;;;;;;;;;;5056473;28;20085;-73
2023/12/28 13:39:50;;;;;;;4.57;1.05;;;;;;;;;;5054464;28;20150;-71
2023/12/28 13:42:15;;;;;;;5.05;1.45;;;;;;;;;;5057723;28;20821;-70
2023/12/28 13:44:41;;;;;;;9.23;1.77;;;;;;;;;;5054804;28;20925;-71
2023/12/28 13:47:07;;;;;;;5.75;1.50;;;;;;;;;;5050160;28;21219;-70
2023/12/28 13:49:32;;;;;;;6.00;1.83;;;;;;;;;;5053576;28;20032;-70
2023/12/28 13:51:57;;;;;;;7.33;1.67;;;;;;;;;;5052905;28;20028;-70
2023/12/28 13:54:22;;;;;;;7.37;2.20;;;;;;;;;;5053753;28;20273;-72
2023/12/28 13:56:48;;;;;;;8.80;1.55;;;;;;;;;;5060280;28;21201;-73
2023/12/28 13:59:13;;;;;;;5.25;1.05;;;;;;;;;;5058608;28;20051;-81
2023/12/28 14:01:39;;;;;;;4.50;1.08;;;;;;;;;;5079517;28;21459;-82
2023/12/28 14:04:04;;;;;;;5.85;1.25;;;;;;;;;;5060014;28;20146;-77
2023/12/28 14:06:29;;;;;;;5.83;1.37;;;;;;;;;;5052359;28;20379;-82
2023/12/28 14:08:54;;;;;;;4.13;1.52;;;;;;;;;;5027589;28;20293;-81
2023/12/28 14:11:20;;;;;;;4.18;1.05;;;;;;;;;;5089605;28;20017;-81
2023/12/28 14:13:45;;;;;;;5.03;1.30;;;;;;;;;;5072889;28;20027;-76
2023/12/28 14:16:10;;;;;;;5.43;1.53;;;;;;;;;;5073617;28;20063;-78
2023/12/28 14:18:35;;;;;;;2.78;0.90;;;;;;;;;;5064018;28;20385;-76
2023/12/28 14:21:01;;;;;;;4.50;1.67;;;;;;;;;;5075412;28;20911;-73
2023/12/28 14:23:26;;;;;;;4.05;1.02;;;;;;;;;;5085434;28;20305;-67
2023/12/28 14:25:53;;;;;;;5.30;1.35;;;;;;;;;;5090007;28;20107;-64
2023/12/28 14:28:19;;;;;;;4.05;1.50;;;;;;;;;;5090344;28;20035;-65
2023/12/28 14:30:45;;;;;;;5.43;1.90;;;;;;;;;;5080577;28;20042;-63
2023/12/28 14:33:10;;;;;;;3.10;0.85;;;;;;;;;;5075613;28;20031;-66